sensor_id;sensor_type;location;lat;lon;timestamp;pressure;altitude;pressure_sealevel;temperature;humidity
10466;BME280;5280;42.600;23.556;2023-05-29T00:01:34;93113.78;;;14.08;100.00
10466;BME280;5280;42.600;23.556;2023-05-29T00:04:18;93212.13;;;14.62;100.00
10466;BME280;5280;42.600;23.556;2023-05-29T00:06:47;93179.88;;;14.48;100.00
10466;BME280;5280;42.600;23.556;2023-05-29T00:09:13;93196.50;;;14.50;100.00
10466;BME280;5280;42.600;23.556;2023-05-29T00:11:42;93140.81;;;14.21;100.00
10466;BME280;5280;42.600;23.556;2023-05-29T00:14:08;93121.84;;;14.16;100.00
10466;BME280;5280;42.600;23.556;2023-05-29T00:16:38;93198.81;;;14.62;100.00
10466;BME280;5280;42.600;23.556;2023-05-29T00:19:05;93208.19;;;14.67;100.00
10466;BME280;5280;42.600;23.556;2023-05-29T00:21:31;93194.50;;;14.61;100.00
10466;BME280;5280;42.600;23.556;2023-05-29T00:23:58;93206.94;;;14.61;100.00
10466;BME280;5280;42.600;23.556;2023-05-29T00:26:25;93155.03;;;14.39;100.00
10466;BME280;5280;42.600;23.556;2023-05-29T00:28:55;93161.16;;;14.40;100.00
10466;BME280;5280;42.600;23.556;2023-05-29T00:31:22;93144.97;;;14.33;100.00
10466;BME280;5280;42.600;23.556;2023-05-29T00:33:49;93170.09;;;14.48;100.00
10466;BME280;5280;42.600;23.556;2023-05-29T00:36:16;93200.19;;;14.67;100.00
10466;BME280;5280;42.600;23.556;2023-05-29T00:38:43;93147.91;;;14.30;100.00
10466;BME280;5280;42.600;23.556;2023-05-29T00:41:14;93185.72;;;14.51;100.00
10466;BME280;5280;42.600;23.556;2023-05-29T00:43:41;93194.88;;;14.49;100.00
10466;BME280;5280;42.600;23.556;2023-05-29T00:46:09;93187.03;;;14.47;100.00
10466;BME280;5280;42.600;23.556;2023-05-29T00:48:39;93187.03;;;14.47;100.00
10466;BME280;5280;42.600;23.556;2023-05-29T00:51:07;93177.69;;;14.43;100.00
10466;BME280;5280;42.600;23.556;2023-05-29T00:53:34;93152.31;;;14.21;100.00
10466;BME280;5280;42.600;23.556;2023-05-29T00:56:01;93169.56;;;14.35;100.00
10466;BME280;5280;42.600;23.556;2023-05-29T00:58:30;93183.97;;;14.42;100.00
10466;BME280;5280;42.600;23.556;2023-05-29T01:00:57;93143.41;;;14.13;100.00
10466;BME280;5280;42.600;23.556;2023-05-29T01:03:25;93125.53;;;14.05;100.00
10466;BME280;5280;42.600;23.556;2023-05-29T01:05:53;93172.66;;;14.31;100.00
10466;BME280;5280;42.600;23.556;2023-05-29T01:08:20;93188.91;;;14.37;100.00
10466;BME280;5280;42.600;23.556;2023-05-29T01:10:49;93205.56;;;14.39;100.00
10466;BME280;5280;42.600;23.556;2023-05-29T01:13:20;93181.94;;;14.27;100.00
10466;BME280;5280;42.600;23.556;2023-05-29T01:15:53;93128.41;;;13.94;100.00
10466;BME280;5280;42.600;23.556;2023-05-29T01:18:34;93138.72;;;13.97;100.00
10466;BME280;5280;42.600;23.556;2023-05-29T01:21:08;93131.13;;;13.85;100.00
10466;BME280;5280;42.600;23.556;2023-05-29T01:23:55;93150.34;;;13.96;100.00
10466;BME280;5280;42.600;23.556;2023-05-29T01:26:48;93188.41;;;14.24;100.00
10466;BME280;5280;42.600;23.556;2023-05-29T01:29:18;93180.03;;;14.19;100.00
10466;BME280;5280;42.600;23.556;2023-05-29T01:31:47;93179.25;;;14.09;100.00
10466;BME280;5280;42.600;23.556;2023-05-29T01:34:14;93129.31;;;13.75;100.00
10466;BME280;5280;42.600;23.556;2023-05-29T01:36:41;93171.16;;;14.01;100.00
10466;BME280;5280;42.600;23.556;2023-05-29T01:39:23;93186.50;;;14.07;100.00
10466;BME280;5280;42.600;23.556;2023-05-29T01:41:51;93184.16;;;14.04;100.00
10466;BME280;5280;42.600;23.556;2023-05-29T01:44:19;93117.94;;;13.56;100.00
10466;BME280;5280;42.600;23.556;2023-05-29T01:46:47;93170.91;;;13.94;100.00
10466;BME280;5280;42.600;23.556;2023-05-29T01:49:16;93168.84;;;13.88;100.00
10466;BME280;5280;42.600;23.556;2023-05-29T01:51:43;93130.25;;;13.57;100.00
10466;BME280;5280;42.600;23.556;2023-05-29T01:54:10;93163.97;;;13.84;100.00
10466;BME280;5280;42.600;23.556;2023-05-29T01:56:38;93119.97;;;13.44;100.00
10466;BME280;5280;42.600;23.556;2023-05-29T01:59:10;93155.63;;;13.69;100.00
10466;BME280;5280;42.600;23.556;2023-05-29T02:01:38;93164.84;;;13.74;100.00
10466;BME280;5280;42.600;23.556;2023-05-29T02:04:05;93176.16;;;13.76;100.00
10466;BME280;5280;42.600;23.556;2023-05-29T02:06:32;93169.47;;;13.72;100.00
10466;BME280;5280;42.600;23.556;2023-05-29T02:08:59;93085.69;;;13.14;100.00
10466;BME280;5280;42.600;23.556;2023-05-29T02:11:26;93168.66;;;13.62;100.00
10466;BME280;5280;42.600;23.556;2023-05-29T02:13:53;93156.25;;;13.53;100.00
10466;BME280;5280;42.600;23.556;2023-05-29T02:16:22;93096.00;;;13.17;100.00
10466;BME280;5280;42.600;23.556;2023-05-29T02:18:49;93164.38;;;13.42;100.00
10466;BME280;5280;42.600;23.556;2023-05-29T02:21:17;93068.66;;;12.87;100.00
10466;BME280;5280;42.600;23.556;2023-05-29T02:23:44;93166.88;;;13.53;100.00
10466;BME280;5280;42.600;23.556;2023-05-29T02:26:12;93178.47;;;13.52;100.00
10466;BME280;5280;42.600;23.556;2023-05-29T02:28:39;93180.16;;;13.53;100.00
10466;BME280;5280;42.600;23.556;2023-05-29T02:31:06;93180.41;;;13.50;100.00
10466;BME280;5280;42.600;23.556;2023-05-29T02:33:34;93174.13;;;13.51;100.00
10466;BME280;5280;42.600;23.556;2023-05-29T02:36:01;93179.75;;;13.48;100.00
10466;BME280;5280;42.600;23.556;2023-05-29T02:38:28;93183.22;;;13.49;100.00
10466;BME280;5280;42.600;23.556;2023-05-29T02:40:57;93153.94;;;13.21;100.00
10466;BME280;5280;42.600;23.556;2023-05-29T02:43:24;93197.78;;;13.45;100.00
10466;BME280;5280;42.600;23.556;2023-05-29T02:49:14;93173.34;;;13.31;100.00
10466;BME280;5280;42.600;23.556;2023-05-29T02:51:41;93197.91;;;13.43;100.00
10466;BME280;5280;42.600;23.556;2023-05-29T02:54:07;93195.53;;;13.50;100.00
10466;BME280;5280;42.600;23.556;2023-05-29T02:56:34;93181.97;;;13.43;100.00
10466;BME280;5280;42.600;23.556;2023-05-29T02:59:01;93174.56;;;13.47;100.00
10466;BME280;5280;42.600;23.556;2023-05-29T03:01:28;93177.50;;;13.53;100.00
10466;BME280;5280;42.600;23.556;2023-05-29T03:03:55;93105.34;;;13.02;100.00
10466;BME280;5280;42.600;23.556;2023-05-29T03:06:23;93188.09;;;13.63;100.00
10466;BME280;5280;42.600;23.556;2023-05-29T03:08:51;93171.47;;;13.51;100.00
10466;BME280;5280;42.600;23.556;2023-05-29T03:11:17;93095.47;;;13.13;100.00
10466;BME280;5280;42.600;23.556;2023-05-29T03:13:44;93088.34;;;13.14;100.00
10466;BME280;5280;42.600;23.556;2023-05-29T03:16:12;93187.16;;;13.82;100.00
10466;BME280;5280;42.600;23.556;2023-05-29T03:18:39;93192.22;;;13.85;100.00
10466;BME280;5280;42.600;23.556;2023-05-29T03:21:06;93114.66;;;13.44;100.00
10466;BME280;5280;42.600;23.556;2023-05-29T03:23:35;93151.16;;;13.69;100.00
10466;BME280;5280;42.600;23.556;2023-05-29T03:26:02;93197.88;;;13.99;100.00
10466;BME280;5280;42.600;23.556;2023-05-29T03:28:29;93204.00;;;14.00;100.00
10466;BME280;5280;42.600;23.556;2023-05-29T03:30:55;93193.50;;;14.08;100.00
10466;BME280;5280;42.600;23.556;2023-05-29T03:33:22;93178.13;;;14.02;100.00
10466;BME280;5280;42.600;23.556;2023-05-29T03:35:49;93169.91;;;13.95;100.00
10466;BME280;5280;42.600;23.556;2023-05-29T03:38:16;93144.63;;;13.91;100.00
10466;BME280;5280;42.600;23.556;2023-05-29T03:40:44;93180.31;;;14.16;100.00
10466;BME280;5280;42.600;23.556;2023-05-29T03:43:11;93121.47;;;13.84;100.00
10466;BME280;5280;42.600;23.556;2023-05-29T03:45:38;93124.91;;;13.94;100.00
10466;BME280;5280;42.600;23.556;2023-05-29T03:48:05;93129.00;;;13.88;100.00
10466;BME280;5280;42.600;23.556;2023-05-29T03:50:32;93185.28;;;14.29;100.00
10466;BME280;5280;42.600;23.556;2023-05-29T03:52:59;93179.81;;;14.30;100.00
10466;BME280;5280;42.600;23.556;2023-05-29T03:55:26;93155.25;;;14.18;100.00
10466;BME280;5280;42.600;23.556;2023-05-29T03:57:54;93140.00;;;14.20;100.00
10466;BME280;5280;42.600;23.556;2023-05-29T04:00:22;93210.25;;;14.73;100.00
10466;BME280;5280;42.600;23.556;2023-05-29T04:02:48;93206.03;;;14.70;100.00
10466;BME280;5280;42.600;23.556;2023-05-29T04:05:15;93185.13;;;14.57;100.00
10466;BME280;5280;42.600;23.556;2023-05-29T04:07:45;93220.28;;;14.79;100.00
10466;BME280;5280;42.600;23.556;2023-05-29T04:10:12;93243.00;;;14.91;100.00
10466;BME280;5280;42.600;23.556;2023-05-29T04:12:39;93172.16;;;14.54;100.00
10466;BME280;5280;42.600;23.556;2023-05-29T04:15:08;93236.94;;;14.98;100.00
10466;BME280;5280;42.600;23.556;2023-05-29T04:17:35;93185.59;;;14.71;100.00
10466;BME280;5280;42.600;23.556;2023-05-29T04:20:02;93239.75;;;14.97;100.00
10466;BME280;5280;42.600;23.556;2023-05-29T04:22:34;93227.28;;;14.97;100.00
10466;BME280;5280;42.600;23.556;2023-05-29T04:25:01;93178.31;;;14.73;100.00
10466;BME280;5280;42.600;23.556;2023-05-29T04:27:29;93184.16;;;14.76;100.00
10466;BME280;5280;42.600;23.556;2023-05-29T04:29:57;93247.31;;;15.19;100.00
10466;BME280;5280;42.600;23.556;2023-05-29T04:32:26;93240.84;;;15.04;100.00
10466;BME280;5280;42.600;23.556;2023-05-29T04:34:53;93251.31;;;15.23;100.00
10466;BME280;5280;42.600;23.556;2023-05-29T04:37:21;93246.53;;;15.27;100.00
10466;BME280;5280;42.600;23.556;2023-05-29T04:39:55;93234.19;;;15.26;100.00
10466;BME280;5280;42.600;23.556;2023-05-29T04:42:22;93222.03;;;15.23;100.00
10466;BME280;5280;42.600;23.556;2023-05-29T04:44:50;93231.84;;;15.23;100.00
10466;BME280;5280;42.600;23.556;2023-05-29T04:47:18;93213.41;;;15.29;100.00
10466;BME280;5280;42.600;23.556;2023-05-29T04:49:46;93184.69;;;15.15;100.00
10466;BME280;5280;42.600;23.556;2023-05-29T04:52:15;93182.78;;;15.25;100.00
10466;BME280;5280;42.600;23.556;2023-05-29T04:54:42;93234.72;;;15.65;100.00
10466;BME280;5280;42.600;23.556;2023-05-29T04:57:09;93244.75;;;15.71;100.00
10466;BME280;5280;42.600;23.556;2023-05-29T04:59:37;93237.47;;;15.73;100.00
10466;BME280;5280;42.600;23.556;2023-05-29T05:02:04;93234.63;;;15.74;100.00
10466;BME280;5280;42.600;23.556;2023-05-29T05:04:31;93226.69;;;15.82;100.00
10466;BME280;5280;42.600;23.556;2023-05-29T05:06:59;93239.22;;;15.90;100.00
10466;BME280;5280;42.600;23.556;2023-05-29T05:09:28;93261.75;;;16.21;100.00
10466;BME280;5280;42.600;23.556;2023-05-29T05:11:55;93273.28;;;16.30;100.00
10466;BME280;5280;42.600;23.556;2023-05-29T05:14:22;93226.69;;;16.08;100.00
10466;BME280;5280;42.600;23.556;2023-05-29T05:16:49;93264.81;;;16.60;100.00
10466;BME280;5280;42.600;23.556;2023-05-29T05:19:16;93209.28;;;16.30;100.00
10466;BME280;5280;42.600;23.556;2023-05-29T05:21:43;93244.03;;;16.72;100.00
10466;BME280;5280;42.600;23.556;2023-05-29T05:24:11;93230.69;;;16.72;100.00
10466;BME280;5280;42.600;23.556;2023-05-29T05:26:38;93264.47;;;16.97;100.00
10466;BME280;5280;42.600;23.556;2023-05-29T05:29:05;93260.78;;;16.98;100.00
10466;BME280;5280;42.600;23.556;2023-05-29T05:31:31;93254.13;;;17.02;100.00
10466;BME280;5280;42.600;23.556;2023-05-29T05:33:58;93267.84;;;17.23;100.00
10466;BME280;5280;42.600;23.556;2023-05-29T05:36:25;93207.19;;;16.84;99.62
10466;BME280;5280;42.600;23.556;2023-05-29T05:38:52;93258.81;;;17.08;99.62
10466;BME280;5280;42.600;23.556;2023-05-29T05:41:20;93270.53;;;17.32;99.89
10466;BME280;5280;42.600;23.556;2023-05-29T05:43:47;93276.53;;;17.34;100.00
10466;BME280;5280;42.600;23.556;2023-05-29T05:46:16;93229.44;;;17.16;100.00
10466;BME280;5280;42.600;23.556;2023-05-29T05:48:46;93233.16;;;17.32;100.00
10466;BME280;5280;42.600;23.556;2023-05-29T05:51:12;93245.50;;;17.49;99.81
10466;BME280;5280;42.600;23.556;2023-05-29T05:53:39;93203.44;;;17.43;100.00
10466;BME280;5280;42.600;23.556;2023-05-29T05:56:06;93243.22;;;17.78;95.83
10466;BME280;5280;42.600;23.556;2023-05-29T05:58:35;93223.16;;;17.74;93.13
10466;BME280;5280;42.600;23.556;2023-05-29T06:01:02;93227.34;;;17.77;93.57
10466;BME280;5280;42.600;23.556;2023-05-29T06:03:29;93197.56;;;17.55;94.68
10466;BME280;5280;42.600;23.556;2023-05-29T06:06:00;93236.00;;;17.79;94.55
10466;BME280;5280;42.600;23.556;2023-05-29T06:08:30;93281.44;;;18.19;100.00
10466;BME280;5280;42.600;23.556;2023-05-29T06:10:57;93200.25;;;17.80;100.00
10466;BME280;5280;42.600;23.556;2023-05-29T06:13:25;93242.16;;;18.20;100.00
10466;BME280;5280;42.600;23.556;2023-05-29T06:15:53;93191.34;;;18.03;100.00
10466;BME280;5280;42.600;23.556;2023-05-29T06:18:21;93229.09;;;18.25;97.69
10466;BME280;5280;42.600;23.556;2023-05-29T06:20:48;93283.88;;;18.53;98.32
10466;BME280;5280;42.600;23.556;2023-05-29T06:23:16;93289.56;;;18.50;97.62
10466;BME280;5280;42.600;23.556;2023-05-29T06:25:44;93202.56;;;18.07;97.94
10466;BME280;5280;42.600;23.556;2023-05-29T06:28:15;93287.91;;;18.65;97.50
10466;BME280;5280;42.600;23.556;2023-05-29T06:30:42;93215.41;;;18.20;98.30
10466;BME280;5280;42.600;23.556;2023-05-29T06:33:11;93275.19;;;18.67;97.74
10466;BME280;5280;42.600;23.556;2023-05-29T06:35:39;93250.94;;;18.53;95.82
10466;BME280;5280;42.600;23.556;2023-05-29T06:38:07;93238.75;;;18.42;95.27
10466;BME280;5280;42.600;23.556;2023-05-29T06:40:34;93200.16;;;18.28;93.21
10466;BME280;5280;42.600;23.556;2023-05-29T06:43:01;93238.06;;;18.48;91.31
10466;BME280;5280;42.600;23.556;2023-05-29T06:45:28;93186.59;;;18.30;91.53
10466;BME280;5280;42.600;23.556;2023-05-29T06:48:01;93273.25;;;18.84;94.36
10466;BME280;5280;42.600;23.556;2023-05-29T06:50:33;93245.38;;;18.70;94.40
10466;BME280;5280;42.600;23.556;2023-05-29T06:53:05;93194.94;;;18.43;92.28
10466;BME280;5280;42.600;23.556;2023-05-29T06:55:35;93222.31;;;18.61;88.49
10466;BME280;5280;42.600;23.556;2023-05-29T06:58:03;93265.38;;;18.90;89.65
10466;BME280;5280;42.600;23.556;2023-05-29T07:00:41;93255.97;;;18.95;90.61
10466;BME280;5280;42.600;23.556;2023-05-29T07:03:25;93197.34;;;18.77;88.85
10466;BME280;5280;42.600;23.556;2023-05-29T07:05:54;93202.81;;;18.83;89.47
10466;BME280;5280;42.600;23.556;2023-05-29T07:08:22;93256.84;;;19.18;85.60
10466;BME280;5280;42.600;23.556;2023-05-29T07:10:49;93242.34;;;19.12;87.21
10466;BME280;5280;42.600;23.556;2023-05-29T07:13:25;93273.81;;;19.41;87.30
10466;BME280;5280;42.600;23.556;2023-05-29T07:16:01;93313.97;;;19.57;85.12
10466;BME280;5280;42.600;23.556;2023-05-29T07:18:30;93212.34;;;19.17;86.26
10466;BME280;5280;42.600;23.556;2023-05-29T07:21:16;93211.44;;;19.02;85.36
10466;BME280;5280;42.600;23.556;2023-05-29T07:23:43;93282.50;;;19.51;87.50
10466;BME280;5280;42.600;23.556;2023-05-29T07:26:11;93242.75;;;19.24;87.71
10466;BME280;5280;42.600;23.556;2023-05-29T07:28:38;93221.84;;;19.19;85.04
10466;BME280;5280;42.600;23.556;2023-05-29T07:31:04;93241.16;;;19.15;84.19
10466;BME280;5280;42.600;23.556;2023-05-29T07:33:31;93266.31;;;19.37;85.17
10466;BME280;5280;42.600;23.556;2023-05-29T07:35:58;93294.00;;;19.60;87.50
10466;BME280;5280;42.600;23.556;2023-05-29T07:38:26;93250.78;;;19.32;82.93
10466;BME280;5280;42.600;23.556;2023-05-29T07:40:53;93254.28;;;19.32;83.07
10466;BME280;5280;42.600;23.556;2023-05-29T07:43:20;93276.38;;;19.34;83.79
10466;BME280;5280;42.600;23.556;2023-05-29T07:45:47;93254.72;;;19.13;84.08
10466;BME280;5280;42.600;23.556;2023-05-29T07:48:14;93219.16;;;18.97;85.53
10466;BME280;5280;42.600;23.556;2023-05-29T07:50:41;93284.06;;;19.38;87.65
10466;BME280;5280;42.600;23.556;2023-05-29T07:53:08;93308.94;;;19.54;87.43
10466;BME280;5280;42.600;23.556;2023-05-29T07:55:36;93264.09;;;19.40;88.01
10466;BME280;5280;42.600;23.556;2023-05-29T07:58:03;93271.66;;;19.45;85.99
10466;BME280;5280;42.600;23.556;2023-05-29T08:00:30;93292.06;;;19.76;87.76
10466;BME280;5280;42.600;23.556;2023-05-29T08:02:57;93212.81;;;19.43;87.33
10466;BME280;5280;42.600;23.556;2023-05-29T08:05:24;93240.69;;;19.65;83.45
10466;BME280;5280;42.600;23.556;2023-05-29T08:07:50;93222.75;;;19.65;80.51
10466;BME280;5280;42.600;23.556;2023-05-29T08:10:17;93265.91;;;19.93;82.80
10466;BME280;5280;42.600;23.556;2023-05-29T08:12:45;93215.41;;;19.59;85.03
10466;BME280;5280;42.600;23.556;2023-05-29T08:15:13;93198.19;;;19.54;82.87
10466;BME280;5280;42.600;23.556;2023-05-29T08:17:43;93275.34;;;20.12;83.65
10466;BME280;5280;42.600;23.556;2023-05-29T08:20:11;93240.59;;;19.96;80.71
10466;BME280;5280;42.600;23.556;2023-05-29T08:22:41;93237.84;;;20.04;79.45
10466;BME280;5280;42.600;23.556;2023-05-29T08:25:08;93284.06;;;20.51;77.89
10466;BME280;5280;42.600;23.556;2023-05-29T08:27:35;93275.78;;;20.53;77.24
10466;BME280;5280;42.600;23.556;2023-05-29T08:30:04;93267.47;;;20.62;75.67
10466;BME280;5280;42.600;23.556;2023-05-29T08:32:31;93232.94;;;20.59;72.58
10466;BME280;5280;42.600;23.556;2023-05-29T08:34:58;93261.06;;;20.93;75.14
10466;BME280;5280;42.600;23.556;2023-05-29T08:37:25;93293.06;;;21.17;72.76
10466;BME280;5280;42.600;23.556;2023-05-29T08:39:52;93249.69;;;20.91;74.17
10466;BME280;5280;42.600;23.556;2023-05-29T08:42:21;93287.09;;;21.07;71.54
10466;BME280;5280;42.600;23.556;2023-05-29T08:44:56;93281.66;;;21.15;73.82
10466;BME280;5280;42.600;23.556;2023-05-29T08:47:26;93291.28;;;20.95;70.39
10466;BME280;5280;42.600;23.556;2023-05-29T08:49:54;93255.63;;;20.57;69.39
10466;BME280;5280;42.600;23.556;2023-05-29T08:52:23;93220.69;;;20.42;72.13
10466;BME280;5280;42.600;23.556;2023-05-29T08:54:51;93289.22;;;20.68;70.90
10466;BME280;5280;42.600;23.556;2023-05-29T08:57:19;93236.69;;;20.21;73.75
10466;BME280;5280;42.600;23.556;2023-05-29T08:59:47;93285.91;;;20.66;74.64
10466;BME280;5280;42.600;23.556;2023-05-29T09:02:17;93270.72;;;20.73;73.80
10466;BME280;5280;42.600;23.556;2023-05-29T09:04:46;93203.28;;;20.38;70.79
10466;BME280;5280;42.600;23.556;2023-05-29T09:07:14;93201.91;;;20.42;72.63
10466;BME280;5280;42.600;23.556;2023-05-29T09:09:41;93240.09;;;20.67;72.61
10466;BME280;5280;42.600;23.556;2023-05-29T09:12:09;93270.72;;;21.02;76.66
10466;BME280;5280;42.600;23.556;2023-05-29T09:14:39;93270.06;;;21.00;69.83
10466;BME280;5280;42.600;23.556;2023-05-29T09:17:07;93213.97;;;20.76;74.78
10466;BME280;5280;42.600;23.556;2023-05-29T09:19:35;93267.53;;;21.13;76.03
10466;BME280;5280;42.600;23.556;2023-05-29T09:22:05;93184.28;;;20.84;74.35
10466;BME280;5280;42.600;23.556;2023-05-29T09:24:37;93262.13;;;21.42;74.76
10466;BME280;5280;42.600;23.556;2023-05-29T09:27:04;93228.06;;;21.28;68.59
10466;BME280;5280;42.600;23.556;2023-05-29T09:29:33;93245.69;;;21.52;71.07
10466;BME280;5280;42.600;23.556;2023-05-29T09:32:06;93203.75;;;21.58;72.55
10466;BME280;5280;42.600;23.556;2023-05-29T09:34:34;93232.66;;;21.70;73.06
10466;BME280;5280;42.600;23.556;2023-05-29T09:37:02;93200.31;;;21.64;71.49
10466;BME280;5280;42.600;23.556;2023-05-29T09:39:44;93213.63;;;21.72;65.21
10466;BME280;5280;42.600;23.556;2023-05-29T09:42:12;93174.13;;;21.51;67.81
10466;BME280;5280;42.600;23.556;2023-05-29T09:44:40;93229.75;;;21.72;66.11
10466;BME280;5280;42.600;23.556;2023-05-29T09:47:07;93200.38;;;21.70;65.95
10466;BME280;5280;42.600;23.556;2023-05-29T09:49:34;93247.09;;;22.05;63.28
10466;BME280;5280;42.600;23.556;2023-05-29T09:52:04;93243.81;;;22.10;65.64
10466;BME280;5280;42.600;23.556;2023-05-29T09:54:36;93201.84;;;21.94;68.47
10466;BME280;5280;42.600;23.556;2023-05-29T09:57:03;93194.94;;;22.06;67.41
10466;BME280;5280;42.600;23.556;2023-05-29T09:59:33;93230.34;;;22.38;66.01
10466;BME280;5280;42.600;23.556;2023-05-29T10:02:01;93231.97;;;22.32;62.70
10466;BME280;5280;42.600;23.556;2023-05-29T10:04:29;93173.78;;;22.03;62.24
10466;BME280;5280;42.600;23.556;2023-05-29T10:06:59;93230.59;;;22.43;60.55
10466;BME280;5280;42.600;23.556;2023-05-29T10:09:27;93154.91;;;21.97;62.80
10466;BME280;5280;42.600;23.556;2023-05-29T10:11:57;93241.63;;;22.48;64.32
10466;BME280;5280;42.600;23.556;2023-05-29T10:14:29;93230.41;;;22.44;64.03
10466;BME280;5280;42.600;23.556;2023-05-29T10:17:01;93239.09;;;22.40;60.49
10466;BME280;5280;42.600;23.556;2023-05-29T10:19:32;93196.63;;;22.14;61.89
10466;BME280;5280;42.600;23.556;2023-05-29T10:22:01;93245.44;;;22.32;61.43
10466;BME280;5280;42.600;23.556;2023-05-29T10:24:31;93213.88;;;22.19;63.23
10466;BME280;5280;42.600;23.556;2023-05-29T10:26:59;93202.59;;;22.09;62.31
10466;BME280;5280;42.600;23.556;2023-05-29T10:29:29;93243.09;;;22.22;62.94
10466;BME280;5280;42.600;23.556;2023-05-29T10:32:07;93196.91;;;21.98;64.94
10466;BME280;5280;42.600;23.556;2023-05-29T10:34:42;93195.66;;;21.94;64.95
10466;BME280;5280;42.600;23.556;2023-05-29T10:37:20;93148.59;;;21.62;60.43
10466;BME280;5280;42.600;23.556;2023-05-29T10:39:50;93223.72;;;22.06;61.58
10466;BME280;5280;42.600;23.556;2023-05-29T10:42:43;93227.66;;;22.10;63.36
10466;BME280;5280;42.600;23.556;2023-05-29T10:45:49;93201.19;;;21.92;65.06
10466;BME280;5280;42.600;23.556;2023-05-29T10:48:43;93210.19;;;21.99;62.46
10466;BME280;5280;42.600;23.556;2023-05-29T10:51:29;93178.63;;;21.72;60.77
10466;BME280;5280;42.600;23.556;2023-05-29T10:53:56;93151.97;;;21.49;63.65
10466;BME280;5280;42.600;23.556;2023-05-29T10:56:28;93161.88;;;21.48;66.74
10466;BME280;5280;42.600;23.556;2023-05-29T10:58:59;93175.22;;;21.35;66.06
10466;BME280;5280;42.600;23.556;2023-05-29T11:01:28;93210.31;;;21.70;67.73
10466;BME280;5280;42.600;23.556;2023-05-29T11:04:28;93176.47;;;21.39;68.35
10466;BME280;5280;42.600;23.556;2023-05-29T11:06:57;93213.31;;;21.60;69.77
10466;BME280;5280;42.600;23.556;2023-05-29T11:09:29;93134.97;;;21.06;66.62
10466;BME280;5280;42.600;23.556;2023-05-29T11:12:14;93164.44;;;20.99;68.61
10466;BME280;5280;42.600;23.556;2023-05-29T11:14:54;93141.72;;;20.66;69.28
10466;BME280;5280;42.600;23.556;2023-05-29T11:17:43;93171.34;;;20.58;71.46
10466;BME280;5280;42.600;23.556;2023-05-29T11:20:28;93228.28;;;20.68;73.37
10466;BME280;5280;42.600;23.556;2023-05-29T11:23:03;93228.50;;;20.37;78.56
10466;BME280;5280;42.600;23.556;2023-05-29T11:25:35;93228.69;;;20.28;81.44
10466;BME280;5280;42.600;23.556;2023-05-29T11:28:03;93207.44;;;20.11;85.54
10466;BME280;5280;42.600;23.556;2023-05-29T11:30:43;93163.19;;;19.55;89.03
10466;BME280;5280;42.600;23.556;2023-05-29T11:33:23;93197.31;;;19.61;90.66
10466;BME280;5280;42.600;23.556;2023-05-29T11:35:56;93185.34;;;19.49;93.03
10466;BME280;5280;42.600;23.556;2023-05-29T11:38:24;93125.66;;;19.10;93.51
10466;BME280;5280;42.600;23.556;2023-05-29T11:40:52;93141.81;;;18.93;97.72
10466;BME280;5280;42.600;23.556;2023-05-29T11:43:20;93189.59;;;19.35;99.04
10466;BME280;5280;42.600;23.556;2023-05-29T11:45:52;93165.72;;;19.26;100.00
10466;BME280;5280;42.600;23.556;2023-05-29T11:48:19;93210.06;;;19.59;100.00
10466;BME280;5280;42.600;23.556;2023-05-29T11:50:47;93176.38;;;19.34;100.00
10466;BME280;5280;42.600;23.556;2023-05-29T11:53:14;93215.16;;;19.69;100.00
10466;BME280;5280;42.600;23.556;2023-05-29T11:55:41;93189.56;;;19.66;100.00
10466;BME280;5280;42.600;23.556;2023-05-29T11:58:08;93202.19;;;19.81;100.00
10466;BME280;5280;42.600;23.556;2023-05-29T12:00:36;93206.53;;;19.82;97.86
10466;BME280;5280;42.600;23.556;2023-05-29T12:03:05;93163.38;;;19.68;97.25
10466;BME280;5280;42.600;23.556;2023-05-29T12:05:33;93186.09;;;19.81;89.00
10466;BME280;5280;42.600;23.556;2023-05-29T12:08:10;93148.06;;;19.77;90.98
10466;BME280;5280;42.600;23.556;2023-05-29T12:10:42;93175.41;;;20.10;90.33
10466;BME280;5280;42.600;23.556;2023-05-29T12:13:15;93192.28;;;20.33;91.24
10466;BME280;5280;42.600;23.556;2023-05-29T12:15:44;93192.28;;;20.48;89.54
10466;BME280;5280;42.600;23.556;2023-05-29T12:18:12;93190.09;;;20.51;83.97
10466;BME280;5280;42.600;23.556;2023-05-29T12:20:39;93197.56;;;20.56;84.37
10466;BME280;5280;42.600;23.556;2023-05-29T12:23:08;93200.72;;;20.59;83.30
10466;BME280;5280;42.600;23.556;2023-05-29T12:25:37;93163.41;;;20.35;83.67
10466;BME280;5280;42.600;23.556;2023-05-29T12:28:05;93202.28;;;20.69;88.48
10466;BME280;5280;42.600;23.556;2023-05-29T12:30:37;93182.56;;;20.61;85.44
10466;BME280;5280;42.600;23.556;2023-05-29T12:33:05;93137.00;;;20.53;84.99
10466;BME280;5280;42.600;23.556;2023-05-29T12:35:34;93101.69;;;20.35;82.21
10466;BME280;5280;42.600;23.556;2023-05-29T12:38:02;93127.47;;;20.66;81.66
10466;BME280;5280;42.600;23.556;2023-05-29T12:40:32;93165.19;;;20.93;82.00
10466;BME280;5280;42.600;23.556;2023-05-29T12:43:00;93192.78;;;21.17;79.71
10466;BME280;5280;42.600;23.556;2023-05-29T12:45:29;93178.06;;;20.98;76.85
10466;BME280;5280;42.600;23.556;2023-05-29T12:47:57;93162.44;;;20.87;75.43
10466;BME280;5280;42.600;23.556;2023-05-29T12:50:25;93200.88;;;21.02;78.04
10466;BME280;5280;42.600;23.556;2023-05-29T12:52:58;93182.97;;;20.94;75.81
10466;BME280;5280;42.600;23.556;2023-05-29T12:55:26;93172.97;;;20.88;77.25
10466;BME280;5280;42.600;23.556;2023-05-29T12:57:54;93193.63;;;20.88;77.96
10466;BME280;5280;42.600;23.556;2023-05-29T13:00:21;93199.22;;;20.86;76.21
10466;BME280;5280;42.600;23.556;2023-05-29T13:02:49;93178.22;;;20.60;77.45
10466;BME280;5280;42.600;23.556;2023-05-29T13:05:16;93128.31;;;20.22;79.95
10466;BME280;5280;42.600;23.556;2023-05-29T13:07:45;93187.19;;;20.68;78.36
10466;BME280;5280;42.600;23.556;2023-05-29T13:10:14;93159.72;;;20.51;74.33